• Join FlightAware (Why Join?)
  • Login
  • US Flag 
Trick or treat! (Boo!!) 
04:46AM EDT


 

Airport Tracker/Info


-or-


 

Live Flight TrackerFlight Track Log ✈ AWE1940 ✈ 19-Jun-2013 ✈ KCLT - KALB

Flight Track Log - Related Links

Times and Time Zones

All times are in EDT time to prevent confusion due to time zone crossing. See the AWE1940 flight status page for this flight to view local times or setup timezone preferences in your user account.

Time Position Orientation Groundspeed Altitude Reporting Facility
EDT Latitude Longitude Course Direction KTS MPH feet Rate Location/Type
10:16PM 35.1972 -80.9381 72° East 172 198 1,400  Level Atlanta Center
10:17PM 35.1444 -80.9222 166° South 206 237 3,500 2,280 Climbing Atlanta Center
10:18PM 35.1014 -80.8681 134° Southeast 270 311 5,800 2,700 Climbing Atlanta Center
10:19PM 35.1332 -80.6112 29° Northeast  Level FlightAware Approximate
10:19PM 35.1011 -80.7742 90° East 271 312 9,100  Level Atlanta Center
10:20PM 35.2364 -80.5407 30° Northeast  Level FlightAware Approximate
10:21PM 35.3283 -80.4667 North  Level FlightAware Approximate
10:21PM 35.1478 -80.6503 65° Northeast 291 335 11,800  Level Atlanta Center
10:22PM 35.3682 -80.3347 72° East  Level FlightAware Approximate
10:22PM 35.2292 -80.5783 36° Northeast 306 352 14,300  Level Atlanta Center
10:23PM 35.3128 -80.5036 36° Northeast 351 404 17,400 2,640 Climbing Atlanta Center
10:24PM 35.3633 -80.3792 63° Northeast 377 434 19,600 1,980 Climbing Atlanta Center
10:25PM 35.4286 -80.1522 70° East 431 496 23,000 1,500 Climbing Washington Center
10:26PM 35.4650 -80.0142 72° East 437 503 23,800 1,380 Climbing Washington Center
10:27PM 35.5036 -79.8683 72° East 437 503 25,900 1,620 Climbing Washington Center
10:28PM 35.5422 -79.7197 72° East 437 503 27,000 1,140 Climbing Washington Center
10:29PM 35.5811 -79.5633 73° East 457 526 28,200 1,200 Climbing Washington Center
10:30PM 35.6281 -79.3969 71° East 473 544 29,500 1,260 Climbing Washington Center
10:31PM 35.6914 -79.2414 63° Northeast 485 558 30,800 1,200 Climbing Washington Center
10:32PM 35.7567 -79.0833 63° Northeast 498 573 31,900 1,440 Climbing Washington Center
10:33PM 35.8197 -78.9247 64° Northeast 505 581 33,700 1,860 Climbing Washington Center
10:34PM 35.8822 -78.7708 63° Northeast 505 581 35,700 1,320 Climbing Washington Center
10:35PM 35.9528 -78.6275 59° Northeast 492 566 36,400 600 Climbing Washington Center
10:36PM 36.0253 -78.4786 59° Northeast 492 566 37,000 300 Climbing Washington Center
10:37PM 36.0956 -78.3322 59° Northeast 492 566 37,000  Level Washington Center
10:38PM 36.1678 -78.1831 59° Northeast 497 572 37,000  Level Washington Center
10:39PM 36.2397 -78.0333 59° Northeast 497 572 37,000  Level Washington Center
10:40PM 36.3117 -77.8808 60° Northeast 497 572 37,000 -60 Level Washington Center
10:41PM 36.3831 -77.7308 59° Northeast 497 572 36,900 -60 Descending Washington Center
10:42PM 36.4419 -77.5956 62° Northeast 497 572 36,900  Level Washington Center
10:43PM 36.5131 -77.4422 60° Northeast 497 572 37,000  Climbing Washington Center
10:44PM 36.5842 -77.2889 60° Northeast 497 572 37,000  Level Washington Center
10:45PM 36.6572 -77.1350 59° Northeast 502 578 37,000  Level Washington Center
10:46PM 36.7383 -76.9889 55° Northeast 502 578 37,000 -60 Level Washington Center
10:47PM 36.8542 -76.8844 36° Northeast 495 570 36,900  Descending Washington Center
10:48PM 36.9681 -76.7800 36° Northeast 500 575 37,000  Climbing Washington Center
10:49PM 37.0964 -76.6647 36° Northeast 512 589 37,000  Level Washington Center
10:50PM 37.2142 -76.5594 35° Northeast 512 589 37,000  Level Washington Center
10:51PM 37.3294 -76.4539 36° Northeast 517 595 37,000  Level Washington Center
10:52PM 37.4472 -76.3478 36° Northeast 517 595 37,000  Level Washington Center
10:53PM 37.5625 -76.2414 36° Northeast 517 595 37,000 -60 Level Washington Center
10:54PM 37.6714 -76.1506 33° Northeast 517 595 36,900  Descending Washington Center
10:55PM 37.7969 -76.0256 38° Northeast 517 595 37,000  Climbing Washington Center
10:56PM 37.9203 -75.9392 29° Northeast 517 595 37,000  Level Washington Center
10:57PM 38.0456 -75.8528 28° Northeast 506 582 37,000  Level Washington Center
10:58PM 38.1583 -75.7739 29° Northeast 506 582 37,000  Level Washington Center
10:59PM 38.2817 -75.6869 29° Northeast 506 582 37,000 -60 Level Washington Center
11:01PM 38.4483 -75.5758 28° Northeast 506 582 36,900 -60 Descending Washington Center
11:02PM 38.5983 -75.4722 28° Northeast 506 582 36,900  Level Washington Center
11:03PM 38.7233 -75.3789 30° Northeast 506 582 36,900  Level Washington Center
11:04PM 38.8483 -75.2906 29° Northeast 506 582 36,900  Level Washington Center
11:05PM 38.9753 -75.2019 28° Northeast 506 582 36,900  Level Washington Center
11:06PM 39.1000 -75.1128 29° Northeast 511 588 36,900 -180 Level Washington Center
11:07PM 39.2225 -75.0236 29° Northeast 511 588 36,600 -420 Descending Washington Center
11:08PM 39.3450 -74.9367 29° Northeast 501 577 36,100 -600 Descending Washington Center
11:09PM 39.5256 -74.8053 29° Northeast 494 568 35,200 -480 Descending New York Center
11:10PM 39.6581 -74.7078 30° Northeast 500 575 35,000 -120 Descending New York Center
11:11PM 39.7692 -74.6250 30° Northeast 500 575 35,000  Level New York Center
11:12PM 39.9058 -74.5269 29° Northeast 507 583 35,000 -60 Level New York Center
11:13PM 40.0297 -74.4333 30° Northeast 507 583 34,900 -120 Descending New York Center
11:14PM 40.1533 -74.3419 29° Northeast 507 583 34,800 -600 Descending New York Center
11:15PM 40.2750 -74.2503 30° Northeast 502 578 33,800 -1,320 Descending New York Center
11:16PM 40.3942 -74.1611 30° Northeast 502 578 32,200 -2,160 Descending New York Center
11:17PM 40.5156 -74.0714 29° Northeast 502 578 29,500 -2,820 Descending New York Center
11:19PM 40.7361 -73.9083 29° Northeast 488 562 24,200 -1,980 Descending Boston Center
11:20PM 40.8417 -73.8092 35° Northeast 475 547 24,000 -120 Descending Boston Center
11:21PM 40.9347 -73.6903 44° Northeast 464 534 24,000 -360 Level Boston Center
11:22PM 41.0419 -73.6014 32° Northeast 449 517 23,300 -540 Descending Boston Center
11:23PM 41.1628 -73.6092 357° North 409 471 23,000 -180 Descending Boston Center
11:24PM 41.2583 -73.6219 354° North 420 483 23,000 -60 Level Boston Center
11:25PM 41.3811 -73.6325 356° North 425 489 22,900 -60 Descending Boston Center
11:26PM 41.5083 -73.6486 355° North 425 489 22,900 -480 Level Boston Center
11:27PM 41.6247 -73.6675 353° North 420 483 22,000 -2,100 Descending Boston Center
11:28PM 41.7497 -73.6811 355° North 426 490 18,700 -3,240 Descending Boston Center
11:29PM 41.8600 -73.6944 355° North 413 475 15,600 -3,000 Descending Boston Center
11:30PM 41.9578 -73.7075 354° North 392 451 12,800 -2,280 Descending Boston Center
11:31PM 42.0742 -73.7211 355° North 358 412 11,000 -960 Descending Boston Center
11:32PM 42.1514 -73.7283 356° North 344 396 10,900  Descending Boston Center
11:33PM 42.2367 -73.7383 355° North 303 349 11,000 -720 Climbing Boston Center
11:34PM 42.3158 -73.7486 355° North 259 298 9,500 -1,680 Descending Boston Center
11:35PM 42.3928 -73.7586 355° North 274 315 7,500 -1,860 Descending Boston Center
11:36PM 42.4678 -73.7686 354° North 280 322 5,800 -1,680 Descending Boston Center
11:37PM 42.5383 -73.7869 349° North 253 291 4,200 -1,620 Descending Boston Center